Time;durP1;ratioP1;P1;durP2;ratioP2;P2;SDS_P1;SDS_P2;PMS_P1;PMS_P2;Temp;Humidity;BMP_temperature;BMP_pressure;BME280_temperature;BME280_humidity;BME280_pressure;Samples;Min_cycle;Max_cycle;Signal;HPM_P1;HPM_P2
2022/01/04 00:01:36;;;;;;;10.25;4.90;;;;;;;-7.84;72.36;98287.97;5103580;28;20048;-82
2022/01/04 00:04:04;;;;;;;11.23;5.13;;;;;;;-7.69;72.68;98324.25;5094412;28;20460;-83
2022/01/04 00:06:31;;;;;;;12.48;5.40;;;;;;;-7.70;72.50;98335.19;5093372;28;20079;-83
2022/01/04 00:09:04;;;;;;;12.60;4.53;;;;;;;-7.86;72.69;98302.25;5093113;28;20505;-82
2022/01/04 00:14:17;;;;;;;10.77;4.85;;;;;;;-7.58;72.37;98326.44;5075767;28;20056;-82
2022/01/04 00:16:45;;;;;;;10.38;4.82;;;;;;;-7.76;72.47;98296.00;5058488;28;20068;-82
2022/01/04 00:19:12;;;;;;;12.38;4.93;;;;;;;-7.60;72.49;98328.91;5075246;28;20070;-82
2022/01/04 00:21:40;;;;;;;11.98;5.50;;;;;;;-7.64;72.51;98322.78;5093561;28;20058;-81
2022/01/04 00:24:08;;;;;;;12.10;5.30;;;;;;;-7.80;72.58;98291.56;5093456;28;20481;-82
2022/01/04 00:26:35;;;;;;;19.80;7.30;;;;;;;-7.38;72.63;98329.97;5093205;28;20048;-82
2022/01/04 00:29:02;;;;;;;12.25;5.85;;;;;;;-7.25;72.22;98319.63;5093607;28;20113;-82
2022/01/04 00:31:29;;;;;;;9.80;5.15;;;;;;;-7.31;71.40;98283.78;5092902;28;20121;-82
2022/01/04 00:33:57;;;;;;;10.82;4.97;;;;;;;-6.95;71.47;98319.34;5058189;28;20047;-83
2022/01/04 00:36:25;;;;;;;9.27;4.70;;;;;;;-6.95;70.86;98332.03;5074947;28;20093;-82
2022/01/04 00:38:52;;;;;;;10.02;4.80;;;;;;;-6.95;71.09;98334.59;5075295;28;20063;-84
2022/01/04 00:41:19;;;;;;;12.50;5.40;;;;;;;-6.85;71.38;98327.47;5093556;28;20113;-84
2022/01/04 00:43:46;;;;;;;10.05;5.15;;;;;;;-6.92;70.87;98305.16;5042037;28;20064;-85
2022/01/04 00:46:17;;;;;;;11.00;5.30;;;;;;;-6.68;70.72;98342.66;5075859;28;20417;-84
2022/01/04 00:51:31;;;;;;;10.05;5.03;;;;;;;-6.77;70.69;98324.41;5045876;28;20489;-84
2022/01/04 00:53:58;;;;;;;11.93;5.22;;;;;;;-6.71;70.84;98329.78;5080376;28;20078;-83
2022/01/04 00:56:25;;;;;;;11.65;5.47;;;;;;;-6.66;70.63;98336.84;5096045;28;20055;-84
2022/01/04 00:58:53;;;;;;;11.07;4.88;;;;;;;-6.64;70.37;98336.91;5058470;28;20048;-83
2022/01/04 01:01:21;;;;;;;9.88;5.40;;;;;;;-6.52;70.56;98332.38;5092844;28;20052;-83
2022/01/04 01:03:48;;;;;;;9.65;4.55;;;;;;;-6.50;70.03;98337.53;5079909;28;20083;-84
2022/01/04 01:06:15;;;;;;;11.40;5.22;;;;;;;-6.71;70.52;98312.00;5088891;28;20063;-83
2022/01/04 01:08:42;;;;;;;13.48;5.57;;;;;;;-6.68;70.18;98322.31;5076497;28;20048;-85
2022/01/04 01:11:10;;;;;;;11.60;5.20;;;;;;;-6.54;70.39;98346.66;5075567;28;20048;-81
2022/01/04 01:13:38;;;;;;;14.70;5.47;;;;;;;-6.40;70.26;98343.09;5093463;28;20528;-80
2022/01/04 01:16:06;;;;;;;9.40;5.57;;;;;;;-6.42;69.81;98334.53;5093301;28;20074;-79
2022/01/04 01:18:35;;;;;;;12.95;5.90;;;;;;;-6.54;70.21;98349.22;5093376;28;20109;-82
2022/01/04 01:21:04;;;;;;;12.82;5.80;;;;;;;-6.58;70.50;98354.97;5094034;28;20098;-85
2022/01/04 01:23:31;;;;;;;12.02;6.20;;;;;;;-6.85;70.24;98319.84;5092962;28;20101;-85
2022/01/04 01:25:59;;;;;;;11.25;5.63;;;;;;;-6.92;70.45;98350.84;5093717;28;20432;-86
2022/01/04 01:28:26;;;;;;;11.80;5.60;;;;;;;-7.21;70.65;98316.44;5093386;28;20147;-85
2022/01/04 01:30:53;;;;;;;10.35;5.13;;;;;;;-7.10;70.58;98373.66;5075328;28;20052;-85
2022/01/04 01:33:23;;;;;;;13.18;5.70;;;;;;;-7.29;71.00;98338.91;5078926;28;20499;-84
2022/01/04 01:35:51;;;;;;;16.02;6.00;;;;;;;-7.31;70.94;98345.59;5039588;28;20052;-84
2022/01/04 01:38:19;;;;;;;10.30;5.40;;;;;;;-7.34;70.67;98342.00;5072815;28;20095;-83
2022/01/04 01:40:47;;;;;;;11.48;6.05;;;;;;;-7.35;71.36;98348.75;5077474;28;20052;-82
2022/01/04 01:43:15;;;;;;;12.48;5.90;;;;;;;-7.53;70.74;98320.78;5092963;28;20086;-86
2022/01/04 01:45:43;;;;;;;12.48;5.65;;;;;;;-7.51;70.92;98316.66;5094215;28;20048;-84
2022/01/04 01:48:10;;;;;;;13.88;5.47;;;;;;;-7.11;70.78;98358.38;5081216;28;20125;-83
2022/01/04 01:50:38;;;;;;;15.27;6.13;;;;;;;-7.34;70.64;98322.56;5099837;28;20056;-85
2022/01/04 01:53:05;;;;;;;13.88;5.53;;;;;;;-7.33;70.59;98344.63;5097986;28;20052;-84
2022/01/04 01:55:32;;;;;;;10.85;5.85;;;;;;;-7.26;70.83;98358.50;5098900;28;20054;-84
2022/01/04 01:57:59;;;;;;;10.10;4.90;;;;;;;-7.36;70.92;98339.38;5115914;28;20090;-84
2022/01/04 02:00:28;;;;;;;13.82;5.90;;;;;;;-7.34;71.36;98368.25;5106663;28;20441;-83
2022/01/04 02:02:57;;;;;;;14.35;6.22;;;;;;;-7.46;71.27;98345.69;5083554;28;20083;-83
2022/01/04 02:05:24;;;;;;;11.95;5.75;;;;;;;-7.17;70.98;98355.53;5046013;28;20056;-83
2022/01/04 02:07:52;;;;;;;11.98;6.10;;;;;;;-6.93;70.86;98371.06;5081147;28;20044;-82
2022/01/04 02:10:19;;;;;;;12.63;6.47;;;;;;;-6.80;70.01;98373.41;5057897;28;20048;-82
2022/01/04 02:12:47;;;;;;;12.57;5.50;;;;;;;-6.95;70.15;98381.16;5078411;28;20076;-84
2022/01/04 02:15:23;;;;;;;12.18;6.38;;;;;;;-7.11;70.53;98371.06;5077004;28;20501;-85
2022/01/04 02:17:51;;;;;;;12.25;5.68;;;;;;;-7.32;70.86;98364.13;5076372;28;20071;-85
2022/01/04 02:20:18;;;;;;;15.60;6.57;;;;;;;-7.29;71.32;98373.53;5058441;28;20060;-84
2022/01/04 02:22:46;;;;;;;13.98;6.35;;;;;;;-7.34;71.38;98358.09;5075670;28;20048;-83
2022/01/04 02:25:13;;;;;;;13.70;6.15;;;;;;;-7.17;71.78;98371.63;5075837;28;20083;-81
2022/01/04 02:27:41;;;;;;;19.42;6.90;;;;;;;-6.94;71.07;98364.25;5075662;28;20412;-83
2022/01/04 02:30:12;;;;;;;18.40;6.97;;;;;;;-7.04;70.56;98365.47;5075478;28;20052;-83
2022/01/04 02:32:39;;;;;;;15.70;6.72;;;;;;;-7.37;70.75;98330.06;5075327;28;20070;-83
2022/01/04 02:35:08;;;;;;;12.30;5.53;;;;;;;-7.36;71.17;98357.16;5075701;28;20094;-83
2022/01/04 02:37:35;;;;;;;13.13;5.88;;;;;;;-7.55;71.15;98344.34;5080175;28;20110;-81
2022/01/04 02:40:02;;;;;;;12.65;6.22;;;;;;;-7.44;71.80;98378.75;5081310;28;20568;-83
2022/01/04 02:42:29;;;;;;;15.93;6.15;;;;;;;-7.47;71.79;98381.97;5081944;28;20472;-81
2022/01/04 02:45:00;;;;;;;17.80;5.80;;;;;;;-7.44;71.30;98384.69;5082183;28;20105;-82
2022/01/04 02:47:33;;;;;;;12.77;6.50;;;;;;;-7.19;71.47;98374.88;5066341;28;20502;-81
2022/01/04 02:50:00;;;;;;;15.77;6.32;;;;;;;-7.03;71.05;98390.94;5062766;28;20052;-83
2022/01/04 02:52:28;;;;;;;17.60;6.05;;;;;;;-7.03;70.83;98362.16;5077022;28;20056;-85
2022/01/04 02:54:55;;;;;;;17.00;6.32;;;;;;;-6.83;70.35;98375.81;5058421;28;20076;-84
2022/01/04 02:57:22;;;;;;;17.27;6.65;;;;;;;-6.81;70.36;98402.13;5075432;28;20062;-86
2022/01/04 02:59:49;;;;;;;14.15;6.57;;;;;;;-6.91;70.29;98392.34;5089918;28;20052;-83
2022/01/04 03:02:16;;;;;;;14.77;6.80;;;;;;;-6.91;70.95;98403.34;5078806;28;20059;-85
2022/01/04 03:04:43;;;;;;;16.67;6.43;;;;;;;-6.88;70.60;98390.81;5095344;28;20105;-85
2022/01/04 03:07:11;;;;;;;11.65;6.00;;;;;;;-7.19;70.38;98379.97;5095358;28;20056;-85
2022/01/04 03:09:38;;;;;;;13.93;5.80;;;;;;;-7.24;70.97;98413.59;5077185;28;20398;-83
2022/01/04 03:12:06;;;;;;;14.90;6.00;;;;;;;-7.41;70.96;98404.25;5095517;28;20056;-84
2022/01/04 03:14:34;;;;;;;13.38;5.78;;;;;;;-7.29;70.84;98411.59;5095672;28;20048;-84
2022/01/04 03:17:02;;;;;;;14.02;6.03;;;;;;;-7.48;71.35;98374.31;5076973;28;20105;-84
2022/01/04 03:19:29;;;;;;;15.23;6.43;;;;;;;-7.24;71.30;98416.13;5061794;28;20398;-84
2022/01/04 03:21:57;;;;;;;14.63;6.55;;;;;;;-7.35;71.21;98399.50;5083780;28;20052;-83
2022/01/04 03:24:25;;;;;;;12.07;5.65;;;;;;;-7.49;71.47;98393.72;5078237;28;20463;-83
2022/01/04 03:26:52;;;;;;;12.73;5.95;;;;;;;-7.44;71.28;98425.28;5095995;28;20054;-83
2022/01/04 03:29:19;;;;;;;12.52;5.90;;;;;;;-7.37;71.14;98430.69;5077718;28;20159;-83
2022/01/04 03:31:46;;;;;;;11.80;6.15;;;;;;;-7.33;71.35;98413.13;5094974;28;20452;-84
2022/01/04 03:34:13;;;;;;;16.52;6.78;;;;;;;-7.03;71.30;98423.94;5094740;28;20467;-85
2022/01/04 03:36:41;;;;;;;14.40;6.13;;;;;;;-6.83;70.69;98421.50;5059964;28;20097;-83
2022/01/04 03:39:10;;;;;;;13.55;6.40;;;;;;;-6.69;69.66;98424.69;5095099;28;20063;-83
2022/01/04 03:41:40;;;;;;;12.73;5.68;;;;;;;-6.71;69.96;98432.28;5094799;28;20059;-84
2022/01/04 03:44:10;;;;;;;15.43;6.40;;;;;;;-6.86;69.63;98401.94;5095504;28;20058;-86
2022/01/04 03:46:37;;;;;;;15.87;6.30;;;;;;;-6.84;69.95;98425.72;5096481;28;20055;-82
2022/01/04 03:49:04;;;;;;;14.40;7.00;;;;;;;-6.99;70.42;98407.19;5100461;28;20044;-84
2022/01/04 03:51:31;;;;;;;13.27;5.65;;;;;;;-6.90;70.22;98415.25;5094322;28;20048;-82
2022/01/04 03:54:02;;;;;;;17.98;6.70;;;;;;;-6.85;70.27;98430.72;5076685;28;20058;-83
2022/01/04 03:56:29;;;;;;;14.02;6.28;;;;;;;-6.68;70.37;98431.53;5076870;28;20587;-86
2022/01/04 03:58:56;;;;;;;15.23;6.30;;;;;;;-6.59;69.85;98427.75;5095230;28;20047;-85
2022/01/04 04:01:23;;;;;;;15.80;6.70;;;;;;;-6.49;69.56;98418.91;5076718;28;20052;-84
2022/01/04 04:03:50;;;;;;;14.00;6.30;;;;;;;-6.23;69.22;98444.69;5094092;28;20043;-83
2022/01/04 04:06:17;;;;;;;12.60;6.10;;;;;;;-6.24;69.05;98426.03;5094339;28;20052;-84
2022/01/04 04:08:44;;;;;;;15.77;6.05;;;;;;;-6.22;69.08;98410.81;5094516;28;20058;-83
2022/01/04 04:11:11;;;;;;;14.43;6.05;;;;;;;-6.27;68.88;98443.66;5094532;28;20539;-84
2022/01/04 04:13:38;;;;;;;13.38;6.68;;;;;;;-6.30;69.42;98451.16;5094484;28;20200;-84
2022/01/04 04:16:05;;;;;;;14.23;6.40;;;;;;;-6.40;69.04;98441.34;5082487;28;20068;-82
2022/01/04 04:18:32;;;;;;;13.48;6.28;;;;;;;-6.48;69.53;98456.22;5109137;28;20052;-81
2022/01/04 04:20:59;;;;;;;19.42;6.70;;;;;;;-6.55;69.39;98440.63;5106704;28;20116;-81
2022/01/04 04:23:26;;;;;;;13.60;5.68;;;;;;;-6.73;69.22;98427.88;5101610;28;20099;-84
2022/01/04 04:25:53;;;;;;;13.32;6.53;;;;;;;-6.77;69.87;98423.44;5094851;28;20063;-83
2022/01/04 04:28:20;;;;;;;15.18;6.90;;;;;;;-6.57;69.12;98445.63;5094499;28;20052;-86
2022/01/04 04:30:47;;;;;;;13.80;6.28;;;;;;;-6.76;69.39;98415.06;5094421;28;20058;-84
2022/01/04 04:33:14;;;;;;;13.43;6.50;;;;;;;-6.63;69.53;98438.56;5093969;28;20052;-84
2022/01/04 04:35:41;;;;;;;17.17;6.40;;;;;;;-6.57;69.75;98449.84;5067169;28;20171;-83
2022/01/04 04:38:08;;;;;;;14.93;6.65;;;;;;;-6.53;69.20;98451.72;5089224;28;20056;-84
2022/01/04 04:40:35;;;;;;;18.10;6.80;;;;;;;-6.38;68.90;98448.25;5093895;28;20075;-84
2022/01/04 04:43:02;;;;;;;15.30;7.50;;;;;;;-6.34;68.91;98438.22;5089302;28;20056;-84
2022/01/04 04:45:30;;;;;;;14.88;6.43;;;;;;;-6.34;68.82;98443.31;5073440;28;20056;-83
2022/01/04 04:47:57;;;;;;;19.60;7.28;;;;;;;-6.41;68.78;98424.34;5073227;28;20496;-84
2022/01/04 04:50:24;;;;;;;18.10;7.03;;;;;;;-6.51;68.75;98442.50;5055548;28;20044;-84
2022/01/04 04:52:51;;;;;;;15.60;6.30;;;;;;;-6.71;69.17;98462.75;5074360;28;20060;-84
2022/01/04 04:55:18;;;;;;;12.98;5.90;;;;;;;-6.88;69.92;98467.00;5056316;28;20114;-84
2022/01/04 04:57:45;;;;;;;13.77;6.57;;;;;;;-7.00;69.88;98452.00;5073635;28;20109;-84
2022/01/04 05:00:13;;;;;;;16.27;6.10;;;;;;;-7.10;69.95;98459.94;5073674;28;20520;-84
2022/01/04 05:02:40;;;;;;;12.10;5.88;;;;;;;-7.29;69.92;98463.25;5055834;28;20110;-84
2022/01/04 05:05:08;;;;;;;12.52;5.82;;;;;;;-7.29;70.93;98472.50;5073407;28;20052;-85
2022/01/04 05:07:35;;;;;;;16.42;7.05;;;;;;;-7.08;70.55;98470.19;5073240;28;20072;-83
2022/01/04 05:10:06;;;;;;;16.87;7.93;;;;;;;-6.81;70.14;98479.19;5073285;28;20044;-85
2022/01/04 05:12:33;;;;;;;17.75;7.28;;;;;;;-6.69;69.47;98461.16;5073173;28;20056;-83
2022/01/04 05:15:03;;;;;;;14.13;6.32;;;;;;;-6.54;68.99;98476.25;5060022;28;20056;-84
2022/01/04 05:17:31;;;;;;;15.00;6.82;;;;;;;-6.65;69.36;98477.41;5073477;28;20057;-84
2022/01/04 05:19:58;;;;;;;12.68;5.70;;;;;;;-6.60;69.50;98488.69;5039158;28;20067;-85
2022/01/04 05:22:26;;;;;;;24.42;9.77;;;;;;;-6.68;69.35;98467.09;5056669;28;20056;-83
2022/01/04 05:24:53;;;;;;;13.80;6.30;;;;;;;-6.63;69.00;98478.34;5058673;28;20417;-82
2022/01/04 05:27:20;;;;;;;15.73;6.20;;;;;;;-6.77;69.21;98481.88;5077144;28;20067;-83
2022/01/04 05:29:47;;;;;;;16.00;6.22;;;;;;;-6.67;69.26;98484.94;5076492;28;20056;-82
2022/01/04 05:32:14;;;;;;;15.18;5.80;;;;;;;-6.59;68.88;98490.41;5076898;28;20072;-86
2022/01/04 05:34:41;;;;;;;13.45;5.97;;;;;;;-6.51;68.80;98494.19;5060118;28;20541;-84
2022/01/04 05:37:09;;;;;;;14.90;6.05;;;;;;;-6.61;69.00;98487.78;5067432;28;20060;-84
2022/01/04 05:39:35;;;;;;;12.90;5.72;;;;;;;-6.58;68.90;98482.00;5080729;28;20151;-83
2022/01/04 05:42:03;;;;;;;15.15;6.47;;;;;;;-6.42;68.93;98493.75;5078174;28;20049;-84
2022/01/04 05:44:31;;;;;;;12.88;5.70;;;;;;;-6.47;68.46;98487.59;5080033;28;20056;-84
2022/01/04 05:46:58;;;;;;;21.30;7.30;;;;;;;-6.62;68.91;98502.97;5081208;28;20052;-83
2022/01/04 05:49:25;;;;;;;16.77;6.43;;;;;;;-6.58;68.96;98502.31;5079497;28;20411;-83
2022/01/04 05:51:52;;;;;;;17.08;7.18;;;;;;;-6.50;69.28;98508.63;5065950;28;20054;-83
2022/01/04 05:54:19;;;;;;;16.05;6.65;;;;;;;-6.46;69.22;98505.44;5076828;28;20063;-85
2022/01/04 05:56:46;;;;;;;21.15;7.57;;;;;;;-6.49;68.63;98468.88;5083016;28;20074;-85
2022/01/04 05:59:13;;;;;;;17.23;6.85;;;;;;;-6.38;68.58;98501.59;5076693;28;20048;-83
2022/01/04 06:01:40;;;;;;;18.05;7.15;;;;;;;-6.51;69.08;98496.72;5077516;28;20509;-84
2022/01/04 06:04:07;;;;;;;21.55;9.55;;;;;;;-6.46;69.20;98499.50;5076133;28;20055;-85
2022/01/04 06:06:34;;;;;;;20.15;6.82;;;;;;;-6.63;69.28;98497.00;5096141;28;20056;-85
2022/01/04 06:09:01;;;;;;;16.48;6.32;;;;;;;-6.44;68.93;98525.84;5076910;28;20494;-85
2022/01/04 06:16:43;;;;;;;19.55;7.65;;;;;;;-6.39;68.50;98489.72;5080207;28;20205;-83
2022/01/04 06:19:11;;;;;;;17.35;6.70;;;;;;;-6.19;68.29;98511.00;5075545;28;20055;-84
2022/01/04 06:21:37;;;;;;;17.98;7.22;;;;;;;-6.13;67.81;98517.16;5078575;28;20525;-83
2022/01/04 06:24:05;;;;;;;18.88;7.03;;;;;;;-6.15;67.76;98527.28;5059042;28;20072;-83
2022/01/04 06:26:32;;;;;;;16.60;6.78;;;;;;;-6.20;68.28;98514.31;5075797;28;20054;-86
2022/01/04 06:29:00;;;;;;;16.20;7.50;;;;;;;-6.09;67.68;98524.13;5082803;28;20055;-85
2022/01/04 06:31:27;;;;;;;17.48;6.78;;;;;;;-6.15;67.74;98528.91;5089801;28;20098;-86
2022/01/04 06:33:54;;;;;;;13.07;5.97;;;;;;;-6.25;68.21;98517.44;5095991;28;20105;-84
2022/01/04 06:36:21;;;;;;;16.77;5.82;;;;;;;-6.06;68.27;98534.47;5095691;28;20495;-85
2022/01/04 06:38:48;;;;;;;13.23;5.85;;;;;;;-6.30;67.33;98479.09;5096248;28;20497;-86
2022/01/04 06:41:17;;;;;;;11.48;5.55;;;;;;;-6.01;67.22;98528.78;5095946;28;20056;-84
2022/01/04 06:43:44;;;;;;;13.57;6.07;;;;;;;-6.10;67.77;98530.03;5096590;28;20109;-87
2022/01/04 06:46:13;;;;;;;18.63;7.22;;;;;;;-6.11;67.63;98546.06;5095651;28;20044;-85
2022/01/04 06:48:41;;;;;;;13.53;6.60;;;;;;;-6.09;67.97;98522.44;5096187;28;20062;-83
2022/01/04 06:51:09;;;;;;;15.95;6.95;;;;;;;-6.00;67.09;98542.34;5094440;28;20044;-84
2022/01/04 06:53:36;;;;;;;15.52;6.90;;;;;;;-6.08;67.64;98533.50;5088455;28;20049;-83
2022/01/04 06:56:04;;;;;;;14.65;6.82;;;;;;;-5.99;67.42;98529.72;5073673;28;20052;-86
2022/01/04 06:58:31;;;;;;;17.45;7.07;;;;;;;-5.67;67.16;98549.81;5076691;28;20079;-84
2022/01/04 07:00:58;;;;;;;14.18;6.28;;;;;;;-5.54;66.75;98556.34;5081987;28;20072;-84
2022/01/04 07:03:30;;;;;;;16.08;7.20;;;;;;;-5.50;66.30;98554.00;5085840;28;20059;-80
2022/01/04 07:05:57;;;;;;;14.25;6.40;;;;;;;-5.45;66.34;98542.34;5055446;28;20080;-82
2022/01/04 07:08:25;;;;;;;14.70;6.38;;;;;;;-5.30;66.09;98570.16;5055855;28;20052;-82
2022/01/04 07:10:52;;;;;;;13.20;6.72;;;;;;;-5.34;66.39;98568.28;5055193;28;20075;-83
2022/01/04 07:13:18;;;;;;;15.88;6.40;;;;;;;-5.39;66.12;98552.81;5055822;28;20067;-82
2022/01/04 07:15:48;;;;;;;15.70;7.38;;;;;;;-5.23;65.86;98571.31;5073477;28;20070;-82
2022/01/04 07:18:16;;;;;;;13.27;5.80;;;;;;;-5.23;66.00;98576.41;5055546;28;20060;-83
2022/01/04 07:20:42;;;;;;;16.48;6.93;;;;;;;-5.31;65.42;98555.69;5055920;28;20147;-83
2022/01/04 07:23:09;;;;;;;13.70;6.43;;;;;;;-5.25;65.83;98580.53;5075302;28;20106;-84
2022/01/04 07:25:37;;;;;;;14.98;6.65;;;;;;;-5.18;65.51;98591.09;5091672;28;20052;-82
2022/01/04 07:28:04;;;;;;;14.10;6.55;;;;;;;-5.13;65.35;98598.06;5093768;28;20054;-83
2022/01/04 07:30:31;;;;;;;16.55;7.18;;;;;;;-5.09;65.30;98593.19;5040279;28;20049;-84
2022/01/04 07:32:58;;;;;;;14.00;6.65;;;;;;;-5.09;65.12;98579.56;5067457;28;20048;-83
2022/01/04 07:35:25;;;;;;;13.93;6.28;;;;;;;-4.99;64.90;98580.06;5082196;28;20048;-83
2022/01/04 07:37:52;;;;;;;16.70;7.00;;;;;;;-4.98;64.72;98591.09;5076596;28;20413;-82
2022/01/04 07:40:20;;;;;;;15.90;7.05;;;;;;;-5.01;64.87;98580.75;5094655;28;20054;-82
2022/01/04 07:42:48;;;;;;;14.27;6.30;;;;;;;-4.97;64.55;98577.56;5077316;28;20517;-82
2022/01/04 07:45:15;;;;;;;14.15;6.75;;;;;;;-5.33;64.93;98536.03;5098333;28;20056;-85
2022/01/04 07:47:42;;;;;;;13.25;6.28;;;;;;;-5.10;64.35;98577.81;5095075;28;20055;-83
2022/01/04 07:50:11;;;;;;;13.32;6.57;;;;;;;-5.16;64.31;98564.03;5076550;28;20047;-86
2022/01/04 07:52:38;;;;;;;17.83;6.93;;;;;;;-4.96;64.34;98589.50;5096549;28;20044;-85
2022/01/04 07:55:06;;;;;;;13.70;6.45;;;;;;;-4.87;64.23;98589.91;5094327;28;20048;-83
2022/01/04 07:57:33;;;;;;;14.27;7.45;;;;;;;-4.74;64.20;98593.84;5075378;28;20128;-83
2022/01/04 08:00:00;;;;;;;15.63;7.63;;;;;;;-4.66;64.06;98582.31;5093841;28;20048;-84
2022/01/04 08:02:29;;;;;;;16.98;7.93;;;;;;;-4.58;63.53;98569.88;5093466;28;20135;-82
2022/01/04 08:04:56;;;;;;;18.17;7.90;;;;;;;-4.49;63.31;98587.28;5093058;28;20054;-82
2022/01/04 08:07:23;;;;;;;19.80;8.02;;;;;;;-4.84;63.68;98562.03;5075884;28;20460;-81
2022/01/04 08:09:50;;;;;;;18.65;8.18;;;;;;;-4.56;63.67;98575.91;5093961;28;20092;-89
2022/01/04 08:12:17;;;;;;;17.65;7.43;;;;;;;-4.47;63.31;98591.63;5075249;28;20464;-85
2022/01/04 08:14:45;;;;;;;13.90;6.72;;;;;;;-4.52;63.26;98575.25;5059710;28;20383;-83
2022/01/04 08:17:12;;;;;;;14.05;6.93;;;;;;;-4.53;63.53;98594.78;5094746;28;20071;-82
2022/01/04 08:19:39;;;;;;;11.73;5.72;;;;;;;-4.62;63.54;98596.94;5092850;28;20143;-84
2022/01/04 08:22:06;;;;;;;14.98;6.50;;;;;;;-4.62;63.07;98604.59;5093493;28;20054;-84
2022/01/04 08:24:33;;;;;;;15.48;6.22;;;;;;;-4.60;63.55;98602.97;5074397;28;20052;-83
2022/01/04 08:27:00;;;;;;;13.18;6.47;;;;;;;-4.61;63.17;98579.97;5072739;28;20063;-83
2022/01/04 08:29:29;;;;;;;20.55;9.20;;;;;;;-4.51;62.98;98593.97;5083293;28;20052;-81
2022/01/04 08:31:58;;;;;;;16.00;7.17;;;;;;;-4.49;62.80;98592.38;5072819;28;20059;-83
2022/01/04 08:34:26;;;;;;;15.10;7.18;;;;;;;-4.44;62.68;98594.28;5073192;28;20294;-83
2022/01/04 08:36:53;;;;;;;17.27;7.95;;;;;;;-4.48;62.82;98581.34;5072536;28;20060;-83
2022/01/04 08:39:21;;;;;;;16.77;7.70;;;;;;;-4.51;62.65;98588.88;5059524;28;20460;-83
2022/01/04 08:41:50;;;;;;;19.15;9.10;;;;;;;-4.59;62.77;98598.75;5075182;28;20056;-82
2022/01/04 08:44:17;;;;;;;21.88;10.15;;;;;;;-4.74;62.61;98591.31;5054759;28;20057;-84
2022/01/04 08:46:44;;;;;;;24.02;10.65;;;;;;;-4.58;62.70;98608.13;5073327;28;20086;-82
2022/01/04 08:49:11;;;;;;;23.08;10.02;;;;;;;-4.55;62.75;98585.31;5055651;28;20060;-82
2022/01/04 08:51:38;;;;;;;22.02;10.73;;;;;;;-4.43;62.22;98597.69;5054912;28;20478;-85
2022/01/04 08:54:06;;;;;;;31.55;10.52;;;;;;;-4.49;62.37;98595.78;5082156;28;20147;-83
2022/01/04 08:56:34;;;;;;;21.15;8.95;;;;;;;-4.70;63.20;98595.72;5091880;28;20052;-81
2022/01/04 08:59:05;;;;;;;21.50;8.47;;;;;;;-4.84;63.32;98574.75;5066866;28;20488;-81
2022/01/04 09:01:32;;;;;;;22.92;8.20;;;;;;;-4.88;63.13;98605.09;5075781;28;20055;-80
2022/01/04 09:04:01;;;;;;;19.50;9.02;;;;;;;-5.13;63.69;98576.00;5075566;28;20075;-80
2022/01/04 09:06:28;;;;;;;23.48;9.75;;;;;;;-4.80;63.21;98596.13;5055595;28;20091;-82
2022/01/04 09:08:56;;;;;;;21.00;8.73;;;;;;;-4.72;63.58;98604.13;5056997;28;20135;-79
2022/01/04 09:11:30;;;;;;;25.73;10.88;;;;;;;-4.84;63.11;98559.47;5074701;28;20052;-82
2022/01/04 09:19:27;;;;;;;26.38;11.43;;;;;;;-4.62;62.40;98580.78;5072725;28;20048;-80
2022/01/04 09:21:55;;;;;;;22.13;10.23;;;;;;;-4.66;62.96;98602.69;5073311;28;20049;-80
2022/01/04 09:24:23;;;;;;;23.40;10.45;;;;;;;-4.71;63.25;98599.09;5054739;28;20421;-81
2022/01/04 09:26:50;;;;;;;26.52;11.30;;;;;;;-4.80;63.61;98599.53;5070266;28;20170;-80
2022/01/04 09:29:19;;;;;;;26.45;11.63;;;;;;;-4.56;63.03;98601.41;5053936;28;20102;-80
2022/01/04 09:31:48;;;;;;;27.50;12.00;;;;;;;-4.27;62.41;98617.09;5056158;28;20056;-81
2022/01/04 09:34:15;;;;;;;25.42;11.30;;;;;;;-4.16;61.91;98605.66;5093940;28;20086;-81
2022/01/04 09:36:43;;;;;;;26.05;10.68;;;;;;;-4.09;62.04;98612.72;5092332;28;20117;-80
2022/01/04 09:39:21;;;;;;;;;;;;;;;-4.06;62.18;98617.97;5094193;28;20052;-81
2022/01/04 09:41:49;;;;;;;22.67;10.35;;;;;;;-4.13;61.67;98606.66;5074953;28;20282;-82
2022/01/04 09:44:16;;;;;;;21.52;9.35;;;;;;;-4.22;61.46;98605.38;5092533;28;20048;-81
2022/01/04 09:46:43;;;;;;;19.45;9.18;;;;;;;-4.25;61.56;98623.13;5092405;28;20050;-79
2022/01/04 09:49:11;;;;;;;18.98;8.07;;;;;;;-4.16;62.22;98624.38;5093123;28;20048;-80
2022/01/04 09:51:40;;;;;;;21.73;8.63;;;;;;;-4.05;61.22;98613.75;5093049;28;20052;-81
2022/01/04 09:54:08;;;;;;;19.30;8.77;;;;;;;-3.95;61.38;98608.22;5075172;28;20090;-81
2022/01/04 09:56:35;;;;;;;17.13;8.10;;;;;;;-3.85;61.18;98614.53;5074033;28;20163;-80
2022/01/04 09:59:02;;;;;;;18.00;8.10;;;;;;;-3.65;60.67;98636.63;5057961;28;20048;-80
2022/01/04 10:01:38;;;;;;;15.45;7.47;;;;;;;-3.93;60.64;98611.69;5073454;28;20080;-80
2022/01/04 10:04:17;;;;;;;19.35;7.88;;;;;;;-3.97;61.78;98628.56;5094336;28;20091;-79
2022/01/04 10:07:10;;;;;;;19.92;8.32;;;;;;;-3.94;61.22;98621.03;5077610;28;20052;-81
2022/01/04 10:09:42;;;;;;;18.50;7.35;;;;;;;-3.90;60.99;98622.00;5094842;28;20502;-78
2022/01/04 10:12:10;;;;;;;19.38;8.43;;;;;;;-4.41;61.90;98599.53;5092423;28;20048;-80
2022/01/04 10:14:45;;;;;;;18.65;8.63;;;;;;;-4.33;62.21;98625.34;5059566;28;20056;-81
2022/01/04 10:17:16;;;;;;;19.60;7.97;;;;;;;-4.46;61.99;98623.94;5096115;28;20154;-81
2022/01/04 10:20:07;;;;;;;26.05;9.48;;;;;;;-4.67;62.46;98610.28;5064337;28;20425;-80
2022/01/04 10:22:36;;;;;;;22.98;9.57;;;;;;;-4.68;62.99;98609.41;5078467;28;20101;-79
2022/01/04 10:25:16;;;;;;;24.00;9.45;;;;;;;-4.51;62.71;98586.34;5076753;28;20155;-80
2022/01/04 10:27:46;;;;;;;26.67;10.68;;;;;;;-4.29;61.79;98632.31;5077149;28;20094;-80
2022/01/04 10:30:27;;;;;;;22.92;9.52;;;;;;;-4.54;61.54;98587.06;5091102;28;20052;-81
2022/01/04 10:33:04;;;;;;;26.15;10.55;;;;;;;-4.50;62.68;98628.84;5074228;28;20125;-82
2022/01/04 10:35:58;;;;;;;21.73;10.25;;;;;;;-4.48;62.59;98620.44;5093961;28;20071;-80
2022/01/04 10:38:35;;;;;;;27.80;10.90;;;;;;;-4.32;62.14;98619.44;5089911;28;20447;-82
2022/01/04 10:41:07;;;;;;;26.48;10.75;;;;;;;-4.48;61.49;98623.00;5093509;28;20054;-79
2022/01/04 10:43:44;;;;;;;29.85;11.52;;;;;;;-4.74;62.23;98599.81;5076400;28;20056;-80
2022/01/04 10:46:43;;;;;;;37.45;13.52;;;;;;;-4.88;62.47;98616.19;5069833;28;20578;-81
2022/01/04 10:49:24;;;;;;;33.92;13.25;;;;;;;-5.11;63.15;98601.56;5079887;28;20459;-81
2022/01/04 10:52:12;;;;;;;37.53;14.30;;;;;;;-4.86;62.73;98623.88;5100741;28;20060;-80
2022/01/04 10:54:46;;;;;;;33.30;13.65;;;;;;;-4.84;62.40;98628.25;5062613;28;20061;-81
2022/01/04 10:57:14;;;;;;;39.70;15.43;;;;;;;-4.83;62.40;98630.00;5060925;28;20052;-81
2022/01/04 10:59:41;;;;;;;36.90;13.48;;;;;;;-4.91;62.57;98621.13;5078589;28;20055;-79
2022/01/04 11:02:08;;;;;;;37.08;14.25;;;;;;;-4.89;62.81;98637.34;5060091;28;20045;-82
2022/01/04 11:04:37;;;;;;;33.97;14.45;;;;;;;-4.97;62.46;98633.59;5083234;28;20052;-81
2022/01/04 11:07:09;;;;;;;37.35;14.13;;;;;;;-4.93;62.78;98648.22;5085499;28;20028;-80
2022/01/04 11:09:36;;;;;;;31.63;12.52;;;;;;;-5.03;62.82;98628.25;5066208;28;20048;-80
2022/01/04 11:12:03;;;;;;;32.25;13.45;;;;;;;-5.18;62.41;98603.81;5081165;28;20056;-80
2022/01/04 11:14:30;;;;;;;40.13;14.13;;;;;;;-5.13;62.85;98636.25;5064201;28;20053;-80
2022/01/04 11:17:01;;;;;;;38.03;14.13;;;;;;;-5.30;63.32;98623.63;5079234;28;20090;-80
2022/01/04 11:19:28;;;;;;;40.78;16.08;;;;;;;-5.46;63.46;98618.59;5078702;28;20052;-81
2022/01/04 11:21:59;;;;;;;34.80;13.20;;;;;;;-5.33;64.21;98637.88;5058972;28;20112;-80
2022/01/04 11:24:29;;;;;;;;;;;;;;;-5.24;63.89;98636.63;5080716;28;20063;-79
2022/01/04 11:27:03;;;;;;;34.70;13.30;;;;;;;-5.05;63.62;98642.59;5077214;28;19962;-79
2022/01/04 11:29:48;;;;;;;36.88;13.95;;;;;;;-5.07;62.95;98605.97;5061677;28;20151;-79
2022/01/04 11:32:21;;;;;;;29.80;12.68;;;;;;;-4.95;62.68;98615.03;5076797;28;20074;-80
2022/01/04 11:35:22;;;;;;;34.17;13.30;;;;;;;-4.89;62.89;98637.34;5074096;28;20560;-79
2022/01/04 11:37:52;;;;;;;36.40;13.32;;;;;;;-4.78;62.85;98648.88;5046447;28;20505;-80
2022/01/04 11:40:31;;;;;;;32.33;13.30;;;;;;;-4.85;63.39;98640.91;5063986;28;20066;-82
2022/01/04 11:42:58;;;;;;;29.00;12.52;;;;;;;-4.81;63.47;98632.63;5050957;28;20048;-84
2022/01/04 11:45:38;;;;;;;32.80;12.90;;;;;;;-4.79;63.18;98626.78;5054499;28;20052;-81
2022/01/04 11:48:28;;;;;;;;;;;;;;;-4.92;63.58;98644.88;5055878;28;20041;-80